Time;durP1;ratioP1;P1;durP2;ratioP2;P2;SDS_P1;SDS_P2;PMS_P1;PMS_P2;Temp;Humidity;BMP_temperature;BMP_pressure;BME280_temperature;BME280_humidity;BME280_pressure;Samples;Min_cycle;Max_cycle;Signal;HPM_P1;HPM_P2
2022/05/20 00:00:49;;;;;;;6.57;1.20;;;13.00;99.90;;;;;;5014523;28;20441;-59
2022/05/20 00:03:17;;;;;;;4.20;1.25;;;13.00;99.90;;;;;;5014236;28;20049;-58
2022/05/20 00:05:45;;;;;;;5.03;1.10;;;13.00;99.90;;;;;;5005469;28;20057;-58
2022/05/20 00:08:13;;;;;;;8.00;1.48;;;13.00;99.90;;;;;;5010892;28;20049;-58
2022/05/20 00:10:41;;;;;;;14.10;1.77;;;13.00;99.90;;;;;;5013235;28;20050;-58
2022/05/20 00:13:09;;;;;;;5.57;1.85;;;13.00;99.90;;;;;;5013241;28;20050;-57
2022/05/20 00:15:38;;;;;;;4.00;1.02;;;13.00;99.90;;;;;;5010798;28;20371;-58
2022/05/20 00:18:06;;;;;;;6.82;1.27;;;13.00;99.90;;;;;;5016412;28;20042;-57
2022/05/20 00:20:34;;;;;;;6.30;1.13;;;13.00;99.90;;;;;;4992276;28;20038;-57
2022/05/20 00:23:03;;;;;;;3.35;1.02;;;13.00;99.90;;;;;;5003751;28;20037;-58
2022/05/20 00:25:46;;;;;;;8.98;1.88;;;13.00;99.90;;;;;;5015174;28;20042;-58
2022/05/20 00:28:21;;;;;;;10.60;0.98;;;13.00;99.90;;;;;;5005534;28;20049;-59
2022/05/20 00:30:55;;;;;;;5.88;0.90;;;13.00;99.90;;;;;;5005801;28;20057;-60
2022/05/20 00:33:25;;;;;;;7.18;1.05;;;13.00;99.90;;;;;;4997906;28;20046;-59
2022/05/20 00:35:54;;;;;;;;;;;13.10;99.90;;;;;;4993918;28;20433;-58
2022/05/20 00:38:22;;;;;;;8.48;1.30;;;13.00;99.90;;;;;;5008415;28;19925;-59
2022/05/20 00:40:52;;;;;;;7.47;1.23;;;13.10;99.90;;;;;;5009796;28;20042;-59
2022/05/20 00:43:26;;;;;;;3.28;1.08;;;13.00;99.90;;;;;;5006362;28;20042;-59
2022/05/20 00:46:03;;;;;;;4.68;1.10;;;13.00;99.90;;;;;;5009519;28;20045;-60
2022/05/20 00:48:31;;;;;;;4.95;1.23;;;13.10;99.90;;;;;;5014566;28;20104;-59
2022/05/20 00:51:08;;;;;;;7.15;1.42;;;13.10;99.90;;;;;;4993064;28;20054;-60
2022/05/20 00:53:52;;;;;;;7.75;1.25;;;13.10;99.90;;;;;;5000584;28;20041;-59
2022/05/20 00:56:24;;;;;;;5.22;0.93;;;13.10;99.90;;;;;;5011951;28;20050;-59
2022/05/20 00:58:53;;;;;;;8.50;1.17;;;13.00;99.90;;;;;;5011928;28;20050;-59
2022/05/20 01:01:21;;;;;;;9.25;1.15;;;13.00;99.90;;;;;;5011750;28;20393;-58
2022/05/20 01:03:52;;;;;;;8.23;1.02;;;12.90;99.90;;;;;;5011183;28;20054;-58
2022/05/20 01:06:20;;;;;;;3.67;1.40;;;12.90;99.90;;;;;;5006730;28;20054;-58
2022/05/20 01:08:47;;;;;;;3.30;1.65;;;12.80;99.90;;;;;;5021340;28;20057;-58
2022/05/20 01:11:15;;;;;;;8.85;1.45;;;12.70;99.90;;;;;;5004473;28;20071;-59
2022/05/20 01:13:47;;;;;;;5.70;0.82;;;12.70;99.90;;;;;;5020489;28;20049;-59
2022/05/20 01:16:16;;;;;;;5.10;0.90;;;12.70;99.90;;;;;;5004961;28;20494;-59
2022/05/20 01:18:46;;;;;;;8.00;1.20;;;12.70;99.90;;;;;;4999157;28;20478;-57
2022/05/20 01:21:14;;;;;;;;;;;12.60;99.90;;;;;;5004847;28;20405;-57
2022/05/20 01:23:42;;;;;;;3.70;0.95;;;12.60;99.90;;;;;;5010613;28;19922;-57
2022/05/20 01:26:09;;;;;;;6.95;1.20;;;12.60;99.90;;;;;;5003125;28;20786;-57
2022/05/20 01:28:37;;;;;;;9.05;2.50;;;12.50;99.90;;;;;;5009592;28;20050;-59
2022/05/20 01:31:08;;;;;;;3.03;0.82;;;12.50;99.90;;;;;;4998447;28;20046;-59
2022/05/20 01:33:40;;;;;;;10.93;1.42;;;12.40;99.90;;;;;;4994624;28;20054;-59
2022/05/20 01:36:11;;;;;;;7.22;1.52;;;12.40;99.90;;;;;;5011037;28;20053;-59
2022/05/20 01:38:39;;;;;;;5.50;1.40;;;12.40;99.90;;;;;;5015817;28;20050;-59
2022/05/20 01:41:11;;;;;;;2.13;1.00;;;12.50;99.90;;;;;;5012042;28;20041;-59
2022/05/20 01:44:04;;;;;;;9.85;1.20;;;12.50;99.90;;;;;;5010007;28;20117;-60
2022/05/20 01:46:56;;;;;;;9.25;1.30;;;12.50;99.90;;;;;;5008282;28;20046;-59
2022/05/20 01:49:40;;;;;;;7.13;1.30;;;12.50;99.90;;;;;;5011821;28;20073;-59
2022/05/20 01:52:29;;;;;;;6.63;1.20;;;12.60;99.90;;;;;;5012961;28;20076;-59
2022/05/20 01:55:06;;;;;;;6.10;1.80;;;12.40;99.90;;;;;;5011060;28;20048;-58
2022/05/20 01:57:53;;;;;;;11.45;2.03;;;12.60;99.90;;;;;;5011023;28;21108;-59
2022/05/20 02:00:25;;;;;;;9.77;1.30;;;12.50;99.90;;;;;;5014871;28;20057;-58
2022/05/20 02:03:17;;;;;;;7.00;1.90;;;12.50;99.90;;;;;;5011528;28;20049;-58
2022/05/20 02:05:44;;;;;;;4.80;1.08;;;12.40;99.90;;;;;;5010851;28;20069;-59
2022/05/20 02:08:15;;;;;;;8.25;1.42;;;12.40;99.90;;;;;;5012758;28;20042;-59
2022/05/20 02:11:20;;;;;;;10.10;1.20;;;12.30;99.90;;;;;;4994263;28;20049;-59
2022/05/20 02:14:03;;;;;;;6.03;1.40;;;12.30;99.90;;;;;;5012229;28;20049;-59
2022/05/20 02:16:35;;;;;;;6.22;1.27;;;12.30;99.90;;;;;;4993304;28;20057;-57
2022/05/20 02:19:19;;;;;;;6.50;1.20;;;12.30;99.90;;;;;;5015937;28;20061;-59
2022/05/20 02:21:55;;;;;;;7.78;1.38;;;12.30;99.90;;;;;;5020838;28;20045;-60
2022/05/20 02:24:26;;;;;;;8.43;2.70;;;12.30;99.90;;;;;;5011804;28;20046;-59
2022/05/20 02:27:05;;;;;;;5.45;1.25;;;12.30;99.90;;;;;;5013539;28;20057;-59
2022/05/20 02:29:40;;;;;;;8.27;1.40;;;12.30;99.90;;;;;;5011340;28;20078;-59
2022/05/20 02:32:21;;;;;;;5.70;1.13;;;12.20;99.90;;;;;;5013438;28;20307;-59
2022/05/20 02:34:50;;;;;;;6.55;1.48;;;12.20;99.90;;;;;;5011123;28;20512;-59
2022/05/20 02:37:33;;;;;;;6.30;1.00;;;12.20;99.90;;;;;;5010461;28;20077;-59
2022/05/20 02:40:04;;;;;;;10.23;1.40;;;12.20;99.90;;;;;;5012177;28;20065;-59
2022/05/20 02:42:32;;;;;;;7.70;1.02;;;12.10;99.90;;;;;;5012158;28;20524;-59
2022/05/20 02:45:00;;;;;;;5.13;0.90;;;12.10;99.90;;;;;;5011382;28;20072;-59
2022/05/20 02:47:31;;;;;;;2.55;0.63;;;12.10;99.90;;;;;;5010579;28;20030;-59
2022/05/20 02:50:08;;;;;;;4.25;0.98;;;12.10;99.90;;;;;;5012157;28;20045;-57
2022/05/20 02:52:36;;;;;;;3.67;0.80;;;12.10;99.90;;;;;;5010992;28;20375;-59
2022/05/20 02:55:06;;;;;;;6.53;0.88;;;12.10;99.90;;;;;;5011222;28;20405;-59
2022/05/20 02:57:33;;;;;;;6.97;1.20;;;12.10;99.90;;;;;;5012071;28;20046;-57
2022/05/20 03:05:38;;;;;;;5.72;1.02;;;12.00;99.90;;;;;;5010150;28;20042;-58
2022/05/20 03:08:06;;;;;;;6.28;1.20;;;12.10;99.90;;;;;;5011805;28;20410;-59
2022/05/20 03:10:33;;;;;;;2.13;0.80;;;12.00;99.90;;;;;;5011662;28;20050;-59
2022/05/20 03:13:03;;;;;;;6.18;1.13;;;12.00;99.90;;;;;;5011071;28;20057;-59
2022/05/20 03:15:31;;;;;;;8.55;0.90;;;12.00;99.90;;;;;;5010960;28;20042;-59
2022/05/20 03:17:59;;;;;;;7.65;1.20;;;11.90;99.90;;;;;;5026622;28;20410;-58
2022/05/20 03:20:27;;;;;;;8.50;0.95;;;11.90;99.90;;;;;;5011723;28;20042;-59
2022/05/20 03:22:54;;;;;;;10.40;1.58;;;12.00;99.90;;;;;;5011517;28;20061;-58
2022/05/20 03:25:22;;;;;;;6.82;1.52;;;11.90;99.90;;;;;;5010058;28;20053;-59
2022/05/20 03:27:50;;;;;;;3.20;1.17;;;11.90;99.90;;;;;;5011622;28;20046;-59
2022/05/20 03:30:18;;;;;;;3.83;0.80;;;11.90;99.90;;;;;;5010575;28;20045;-59
2022/05/20 03:32:46;;;;;;;7.75;1.00;;;11.90;99.90;;;;;;5012070;28;20053;-59
2022/05/20 03:35:14;;;;;;;5.15;0.95;;;11.90;99.90;;;;;;5014453;28;20422;-60
2022/05/20 03:37:42;;;;;;;7.25;1.00;;;11.80;99.90;;;;;;5015368;28;20049;-58
2022/05/20 03:40:10;;;;;;;2.88;0.85;;;11.80;99.90;;;;;;5016487;28;20049;-59
2022/05/20 03:42:38;;;;;;;4.30;0.70;;;11.80;99.90;;;;;;5014970;28;20497;-59
2022/05/20 03:45:06;;;;;;;5.75;0.80;;;11.80;99.90;;;;;;5012068;28;20054;-59
2022/05/20 03:47:36;;;;;;;6.75;1.13;;;11.80;99.90;;;;;;5014092;28;20071;-58
2022/05/20 03:50:05;;;;;;;5.07;0.82;;;11.70;99.90;;;;;;5015251;28;20046;-59
2022/05/20 03:52:32;;;;;;;2.97;0.88;;;11.70;99.90;;;;;;5015320;28;20046;-57
2022/05/20 03:55:01;;;;;;;8.02;1.20;;;11.70;99.90;;;;;;5015245;28;20489;-59
2022/05/20 03:57:28;;;;;;;7.50;1.48;;;11.70;99.90;;;;;;5015189;28;20056;-59
2022/05/20 03:59:56;;;;;;;11.00;1.13;;;11.70;99.90;;;;;;5018928;28;20044;-59
2022/05/20 04:02:24;;;;;;;10.38;0.90;;;11.60;99.90;;;;;;5015102;28;20057;-59
2022/05/20 04:04:52;;;;;;;14.32;1.10;;;11.60;99.90;;;;;;5014849;28;20057;-59
2022/05/20 04:07:23;;;;;;;4.43;0.82;;;11.60;99.90;;;;;;5015119;28;20409;-59
2022/05/20 04:09:51;;;;;;;5.93;0.80;;;11.60;99.90;;;;;;5014784;28;20402;-59
2022/05/20 04:12:32;;;;;;;6.93;1.15;;;11.60;99.90;;;;;;5014372;28;20058;-58
2022/05/20 04:15:01;;;;;;;7.90;0.98;;;11.60;99.90;;;;;;5023576;28;20045;-56
2022/05/20 04:17:28;;;;;;;7.25;1.08;;;11.60;99.90;;;;;;5021049;28;20038;-58
2022/05/20 04:19:56;;;;;;;5.72;0.80;;;11.60;99.90;;;;;;5034546;28;20053;-59
2022/05/20 04:22:30;;;;;;;6.00;1.00;;;11.60;99.90;;;;;;5024531;28;20045;-57
2022/05/20 04:24:58;;;;;;;10.10;1.30;;;11.60;99.90;;;;;;5014063;28;20053;-59
2022/05/20 04:27:29;;;;;;;3.47;1.00;;;11.60;99.90;;;;;;5014660;28;20374;-57
2022/05/20 04:29:58;;;;;;;4.47;1.20;;;11.60;99.90;;;;;;5012560;28;20048;-60
2022/05/20 04:32:25;;;;;;;4.30;1.23;;;11.50;99.90;;;;;;5013419;28;20049;-59
2022/05/20 04:34:54;;;;;;;5.43;0.77;;;11.50;99.90;;;;;;5014340;28;20417;-59
2022/05/20 04:37:26;;;;;;;8.23;1.45;;;11.50;99.90;;;;;;5014037;28;20050;-58
2022/05/20 04:39:54;;;;;;;7.68;1.27;;;11.50;99.90;;;;;;5012319;28;20407;-59
2022/05/20 04:48:06;;;;;;;4.82;1.40;;;11.50;99.90;;;;;;4943870;28;20055;-58
2022/05/20 04:50:33;;;;;;;8.27;0.90;;;12.80;99.90;;;;;;4997325;28;20406;-59
2022/05/20 04:53:06;;;;;;;9.25;1.60;;;11.60;99.90;;;;;;4991365;28;20054;-59
2022/05/20 04:55:34;;;;;;;5.50;0.77;;;11.60;99.90;;;;;;5003381;28;20500;-58
2022/05/20 04:58:02;;;;;;;2.30;0.93;;;11.60;99.90;;;;;;5000440;28;20394;-58
2022/05/20 05:00:30;;;;;;;3.03;1.02;;;11.60;99.90;;;;;;4990880;28;20049;-59
2022/05/20 05:02:58;;;;;;;6.22;0.82;;;11.60;99.90;;;;;;4991483;28;20053;-59
2022/05/20 05:05:29;;;;;;;7.13;1.15;;;11.60;99.90;;;;;;5002153;28;20050;-59
2022/05/20 05:07:57;;;;;;;4.90;1.00;;;11.70;99.90;;;;;;4987035;28;20062;-58
2022/05/20 05:10:30;;;;;;;8.70;0.90;;;11.70;99.90;;;;;;5011734;28;20053;-57
2022/05/20 05:12:59;;;;;;;3.55;0.80;;;11.70;99.90;;;;;;5008836;28;20390;-58
2022/05/20 05:15:28;;;;;;;2.58;0.75;;;11.70;99.90;;;;;;5000748;28;20069;-56
2022/05/20 05:18:12;;;;;;;7.10;1.00;;;11.70;99.90;;;;;;5002699;28;20050;-56
2022/05/20 05:20:51;;;;;;;9.93;2.25;;;11.80;99.90;;;;;;5010220;28;20387;-57
2022/05/20 05:23:20;;;;;;;7.78;1.13;;;11.80;99.90;;;;;;4999635;28;20068;-57
2022/05/20 05:25:48;;;;;;;7.55;1.25;;;11.80;99.90;;;;;;5009152;28;20053;-58
2022/05/20 05:28:16;;;;;;;4.35;1.35;;;11.80;99.90;;;;;;5009891;28;20058;-58
2022/05/20 05:30:49;;;;;;;12.30;1.40;;;11.80;99.90;;;;;;4993260;28;20064;-58
2022/05/20 05:33:19;;;;;;;5.68;1.02;;;11.90;99.90;;;;;;4999120;28;20053;-59
2022/05/20 05:35:47;;;;;;;7.65;1.20;;;11.90;99.90;;;;;;5006103;28;20054;-60
2022/05/20 05:38:14;;;;;;;2.70;1.00;;;11.90;99.90;;;;;;5016656;28;20108;-59
2022/05/20 05:40:42;;;;;;;3.22;1.20;;;11.90;99.90;;;;;;5031339;28;20042;-59
2022/05/20 05:43:11;;;;;;;7.00;1.17;;;11.90;99.90;;;;;;5025074;28;20492;-59
2022/05/20 05:45:39;;;;;;;4.75;1.05;;;11.90;99.90;;;;;;4996447;28;20049;-59
2022/05/20 05:48:09;;;;;;;7.95;1.73;;;11.90;99.90;;;;;;5005569;28;20045;-59
2022/05/20 05:50:39;;;;;;;10.95;1.38;;;11.90;99.90;;;;;;5009154;28;20053;-59
2022/05/20 05:53:19;;;;;;;7.45;1.45;;;11.90;99.90;;;;;;5020267;28;20047;-59
2022/05/20 05:55:49;;;;;;;6.95;1.05;;;11.90;99.90;;;;;;5029994;28;20460;-58
2022/05/20 05:58:17;;;;;;;4.68;1.17;;;11.90;99.90;;;;;;5022889;28;20045;-59
2022/05/20 06:00:45;;;;;;;6.25;1.10;;;11.90;99.90;;;;;;5010419;28;20037;-60
2022/05/20 06:03:15;;;;;;;4.38;1.25;;;11.90;99.90;;;;;;5006878;28;20050;-58
2022/05/20 06:05:45;;;;;;;7.78;1.90;;;11.90;99.90;;;;;;5010077;28;20049;-57
2022/05/20 06:08:13;;;;;;;8.35;1.17;;;11.90;99.90;;;;;;5019581;28;20049;-58
2022/05/20 06:10:42;;;;;;;5.53;1.58;;;11.90;99.90;;;;;;5017867;28;20046;-58
2022/05/20 06:13:10;;;;;;;5.63;1.58;;;11.90;99.90;;;;;;5021383;28;20049;-58
2022/05/20 06:15:39;;;;;;;7.57;1.23;;;12.00;99.90;;;;;;5011797;28;20038;-59
2022/05/20 06:18:07;;;;;;;5.85;1.75;;;12.00;99.90;;;;;;5005694;28;20052;-58
2022/05/20 06:20:35;;;;;;;4.35;1.25;;;12.00;99.90;;;;;;5010087;28;20038;-58
2022/05/20 06:23:03;;;;;;;4.13;1.33;;;12.00;99.90;;;;;;5037959;28;20038;-58
2022/05/20 06:25:31;;;;;;;7.88;1.90;;;12.00;99.90;;;;;;5008013;28;20519;-59
2022/05/20 06:28:15;;;;;;;6.65;1.60;;;12.10;99.90;;;;;;5015888;28;20045;-58
2022/05/20 06:30:43;;;;;;;6.40;1.55;;;12.10;99.90;;;;;;4999328;28;20050;-57
2022/05/20 06:33:12;;;;;;;9.00;1.63;;;12.20;99.90;;;;;;4998040;28;20053;-57
2022/05/20 06:41:13;;;;;;;2.72;1.00;;;12.40;99.90;;;;;;5011349;28;20044;-57
2022/05/20 06:43:40;;;;;;;5.65;1.10;;;12.50;99.90;;;;;;5023766;28;20060;-58
2022/05/20 06:46:10;;;;;;;8.88;1.20;;;12.50;99.90;;;;;;4994554;28;20047;-58
2022/05/20 06:48:55;;;;;;;4.78;1.00;;;12.60;99.90;;;;;;5031298;28;20050;-57
2022/05/20 06:51:36;;;;;;;6.25;1.33;;;12.70;99.90;;;;;;5007533;28;20045;-60
2022/05/20 06:54:16;;;;;;;5.50;1.73;;;12.70;99.90;;;;;;5025957;28;20049;-59
2022/05/20 06:56:46;;;;;;;8.93;2.15;;;12.80;99.90;;;;;;5001378;28;20346;-59
2022/05/20 06:59:13;;;;;;;5.07;1.30;;;12.80;99.90;;;;;;5006355;28;20493;-58
2022/05/20 07:01:41;;;;;;;1.38;0.50;;;12.80;99.90;;;;;;4988132;28;20042;-58
2022/05/20 07:04:30;;;;;;;3.42;0.70;;;12.90;99.90;;;;;;4995176;28;20037;-58
2022/05/20 07:06:58;;;;;;;6.15;0.95;;;13.00;99.90;;;;;;4999455;28;20049;-57
2022/05/20 07:09:26;;;;;;;7.47;0.70;;;13.00;99.90;;;;;;5021289;28;20058;-57
2022/05/20 07:11:55;;;;;;;8.90;1.20;;;13.10;99.90;;;;;;5010697;28;20049;-60
2022/05/20 07:14:23;;;;;;;6.00;1.00;;;13.20;99.90;;;;;;5014694;28;20052;-58
2022/05/20 07:16:51;;;;;;;7.82;1.50;;;13.20;99.90;;;;;;4993786;28;20057;-58
2022/05/20 07:19:19;;;;;;;4.05;0.82;;;13.20;99.90;;;;;;5005901;28;20378;-57
2022/05/20 07:21:46;;;;;;;5.28;1.27;;;13.20;99.90;;;;;;5007650;28;20493;-59
2022/05/20 07:24:14;;;;;;;2.78;0.85;;;13.30;99.90;;;;;;5006896;28;20061;-57
2022/05/20 07:26:42;;;;;;;7.00;0.90;;;13.30;99.90;;;;;;4988593;28;20046;-58
2022/05/20 07:29:10;;;;;;;5.53;0.80;;;13.30;99.90;;;;;;5001594;28;20042;-56
2022/05/20 07:31:37;;;;;;;3.22;0.75;;;13.30;99.90;;;;;;5003305;28;20066;-56
2022/05/20 07:34:05;;;;;;;6.57;0.80;;;13.30;99.90;;;;;;5009185;28;20068;-59
2022/05/20 07:36:33;;;;;;;3.65;0.70;;;13.40;99.90;;;;;;4995951;28;20190;-56
2022/05/20 07:39:01;;;;;;;7.00;1.55;;;13.40;99.90;;;;;;4987785;28;20054;-56
2022/05/20 07:41:29;;;;;;;9.43;1.48;;;13.40;99.90;;;;;;4988470;28;20058;-57
2022/05/20 07:43:57;;;;;;;5.10;0.98;;;13.50;99.90;;;;;;5005028;28;20064;-56
2022/05/20 07:46:24;;;;;;;6.70;1.00;;;13.60;99.90;;;;;;4993405;28;20045;-57
2022/05/20 07:48:52;;;;;;;11.25;1.73;;;13.60;99.90;;;;;;5003741;28;20489;-57
2022/05/20 07:51:23;;;;;;;2.85;1.00;;;13.70;99.90;;;;;;5009650;28;20045;-56
2022/05/20 07:53:56;;;;;;;6.40;0.90;;;13.70;99.90;;;;;;5009857;28;20057;-57
2022/05/20 07:56:49;;;;;;;7.15;1.05;;;13.80;99.90;;;;;;4992609;28;20417;-57
2022/05/20 07:59:21;;;;;;;4.97;0.90;;;14.00;99.90;;;;;;5008087;28;20061;-57
2022/05/20 08:01:50;;;;;;;10.13;1.40;;;14.10;99.90;;;;;;4990872;28;20517;-57
2022/05/20 08:07:41;;;;;;;6.60;1.20;;;14.40;99.90;;;;;;5005694;28;20050;-57
2022/05/20 08:10:14;;;;;;;2.88;1.05;;;14.50;99.90;;;;;;4998136;28;20066;-58
2022/05/20 08:12:42;;;;;;;4.75;1.30;;;14.50;99.90;;;;;;5005444;28;20042;-57
2022/05/20 08:15:10;;;;;;;4.63;1.10;;;14.50;99.90;;;;;;5003362;28;20070;-57
2022/05/20 08:17:40;;;;;;;7.47;1.15;;;14.50;99.90;;;;;;5008674;28;20244;-58
2022/05/20 08:20:09;;;;;;;;;;;14.50;99.90;;;;;;5030778;28;20421;-58
2022/05/20 08:22:37;;;;;;;4.72;1.17;;;14.50;99.90;;;;;;5032694;28;19921;-59
2022/05/20 08:25:05;;;;;;;4.07;1.00;;;14.50;99.90;;;;;;5032992;28;20374;-58
2022/05/20 08:27:34;;;;;;;8.35;1.13;;;14.50;99.90;;;;;;5017053;28;20049;-58
2022/05/20 08:30:10;;;;;;;10.40;1.20;;;14.50;99.90;;;;;;5023540;28;20053;-58
2022/05/20 08:32:38;;;;;;;6.57;1.42;;;14.60;99.90;;;;;;4994007;28;20048;-59
2022/05/20 08:35:07;;;;;;;9.75;1.83;;;14.60;99.90;;;;;;5009710;28;20050;-58
2022/05/20 08:37:38;;;;;;;4.85;1.02;;;14.70;99.90;;;;;;5007737;28;20057;-60
2022/05/20 08:40:12;;;;;;;5.32;1.83;;;14.90;99.90;;;;;;5008172;28;20053;-60
2022/05/20 08:42:40;;;;;;;7.18;1.17;;;15.00;99.90;;;;;;5014981;28;20057;-59
2022/05/20 08:45:10;;;;;;;6.90;1.00;;;15.10;99.90;;;;;;5023507;28;20050;-59
2022/05/20 08:47:49;;;;;;;2.38;1.02;;;15.20;99.90;;;;;;4993353;28;20042;-58
2022/05/20 08:50:22;;;;;;;2.47;1.13;;;15.30;99.90;;;;;;5008115;28;20053;-57
2022/05/20 08:52:52;;;;;;;3.80;0.98;;;15.20;99.90;;;;;;5009306;28;20802;-59
2022/05/20 08:55:22;;;;;;;10.63;1.00;;;15.30;99.90;;;;;;5009303;28;20046;-59
2022/05/20 08:58:02;;;;;;;7.07;1.10;;;15.30;99.90;;;;;;5008129;28;20068;-58
2022/05/20 09:00:30;;;;;;;5.25;0.95;;;15.40;99.90;;;;;;4989984;28;20303;-58
2022/05/20 09:02:57;;;;;;;18.65;1.65;;;15.40;99.90;;;;;;5006816;28;20114;-60
2022/05/20 09:05:31;;;;;;;5.25;0.90;;;15.60;99.90;;;;;;5007695;28;20054;-59
2022/05/20 09:08:01;;;;;;;11.13;1.45;;;15.60;99.90;;;;;;5007626;28;20034;-59
2022/05/20 09:10:46;;;;;;;2.67;0.77;;;15.70;99.90;;;;;;5007336;28;20053;-58
2022/05/20 09:16:20;;;;;;;3.90;0.80;;;15.70;99.90;;;;;;4998621;28;20053;-58
2022/05/20 09:19:08;;;;;;;5.50;1.23;;;15.60;99.90;;;;;;5001895;28;20410;-58
2022/05/20 09:21:58;;;;;;;6.45;1.10;;;15.40;99.90;;;;;;5008943;28;20521;-58
2022/05/20 09:24:26;;;;;;;;;;;15.30;99.90;;;;;;5007520;28;20045;-60
2022/05/20 09:27:03;;;;;;;3.92;1.58;;;15.00;99.90;;;;;;5007103;28;20440;-60
2022/05/20 09:29:47;;;;;;;5.65;0.68;;;14.70;99.90;;;;;;5013416;28;20046;-60
2022/05/20 09:32:39;;;;;;;7.63;1.17;;;14.40;99.90;;;;;;5005589;28;20065;-61
2022/05/20 09:35:20;;;;;;;8.35;1.00;;;14.20;99.90;;;;;;5001074;28;20418;-61
2022/05/20 09:37:53;;;;;;;7.68;0.90;;;14.00;99.90;;;;;;5008028;28;20065;-60
2022/05/20 09:40:34;;;;;;;10.60;2.17;;;14.00;99.90;;;;;;5007081;28;20401;-60
2022/05/20 09:43:30;;;;;;;8.02;1.20;;;14.00;99.90;;;;;;5006864;28;20049;-61
2022/05/20 09:46:00;;;;;;;5.10;1.00;;;14.10;99.90;;;;;;4985457;28;20058;-61
2022/05/20 09:48:44;;;;;;;4.35;0.98;;;14.30;99.90;;;;;;4999005;28;20049;-58
2022/05/20 09:51:16;;;;;;;5.05;1.08;;;14.40;99.90;;;;;;5008676;28;20087;-61
2022/05/20 09:54:03;;;;;;;6.82;1.17;;;14.50;99.90;;;;;;5010089;28;20042;-57
2022/05/20 09:56:33;;;;;;;3.00;1.35;;;14.70;99.90;;;;;;5009189;28;20049;-57
2022/05/20 09:59:19;;;;;;;5.40;2.25;;;14.80;99.90;;;;;;5009244;28;20049;-58
2022/05/20 10:02:12;;;;;;;6.70;1.63;;;14.90;99.90;;;;;;5008565;28;20401;-59
2022/05/20 10:04:52;;;;;;;6.53;2.00;;;15.00;99.90;;;;;;5009274;28;20052;-58
2022/05/20 10:07:37;;;;;;;3.95;1.70;;;15.00;99.90;;;;;;5010955;28;20053;-58
2022/05/20 10:10:16;;;;;;;10.52;2.80;;;15.10;99.90;;;;;;5010146;28;20073;-58
2022/05/20 10:12:48;;;;;;;9.90;2.08;;;15.10;99.90;;;;;;5010784;28;20057;-60
2022/05/20 10:15:51;;;;;;;8.88;2.60;;;15.20;99.90;;;;;;5009991;28;20508;-59
2022/05/20 10:18:25;;;;;;;5.32;2.35;;;15.30;99.90;;;;;;5002585;28;20042;-57
2022/05/20 10:21:14;;;;;;;5.18;2.90;;;15.30;99.90;;;;;;5006413;28;20413;-59
2022/05/20 10:23:54;;;;;;;10.13;2.60;;;15.20;99.90;;;;;;5019539;28;20041;-58
2022/05/20 10:26:41;;;;;;;;;;;15.20;99.90;;;;;;5006677;28;20477;-59
2022/05/20 10:35:12;;;;;;;10.77;2.47;;;15.40;99.90;;;;;;5005446;28;20046;-58
2022/05/20 10:37:47;;;;;;;;;;;15.40;99.90;;;;;;5004004;28;20802;-59
2022/05/20 10:40:33;;;;;;;5.60;2.08;;;15.50;99.90;;;;;;5005227;28;19921;-58
2022/05/20 10:43:24;;;;;;;7.15;2.47;;;15.50;99.90;;;;;;5005195;28;20042;-60
2022/05/20 10:49:01;;;;;;;7.03;2.08;;;15.30;99.90;;;;;;5005484;28;20030;-59
2022/05/20 10:52:01;;;;;;;13.30;2.00;;;15.30;99.90;;;;;;5005274;28;20501;-59
2022/05/20 10:54:32;;;;;;;;;;;15.20;99.90;;;;;;5030999;28;20050;-59
2022/05/20 10:57:27;;;;;;;6.65;1.55;;;15.20;99.90;;;;;;5005254;28;19926;-60
2022/05/20 11:00:25;;;;;;;8.45;1.73;;;15.20;99.90;;;;;;5006259;28;20073;-60
2022/05/20 11:03:30;;;;;;;7.28;1.67;;;15.20;99.90;;;;;;4994786;28;20485;-62
2022/05/20 11:06:32;;;;;;;5.35;1.70;;;15.20;99.90;;;;;;5005696;28;20054;-61
2022/05/20 11:09:08;;;;;;;7.10;1.83;;;15.30;99.90;;;;;;5007746;28;20069;-59
2022/05/20 11:11:48;;;;;;;4.03;1.40;;;15.30;99.90;;;;;;4988797;28;20056;-60
2022/05/20 11:14:23;;;;;;;15.20;2.33;;;15.30;99.90;;;;;;5027136;28;20053;-60
2022/05/20 11:17:22;;;;;;;9.27;1.75;;;15.40;99.90;;;;;;5014781;28;20046;-59
2022/05/20 11:20:16;;;;;;;7.95;2.28;;;15.40;99.90;;;;;;5001792;28;20168;-59
2022/05/20 11:23:14;;;;;;;9.70;2.65;;;15.50;99.90;;;;;;5014366;28;20532;-60
2022/05/20 11:26:27;;;;;;;6.55;1.75;;;15.60;99.90;;;;;;5010913;28;20046;-60
2022/05/20 11:29:39;;;;;;;7.43;1.80;;;15.60;99.90;;;;;;4970606;28;20054;-59
2022/05/20 11:32:26;;;;;;;10.93;2.20;;;15.70;99.90;;;;;;4928433;28;20047;-59
2022/05/20 11:35:11;;;;;;;5.38;1.73;;;15.80;99.90;;;;;;5003452;28;20069;-59
2022/05/20 11:38:13;;;;;;;11.05;2.80;;;16.00;99.90;;;;;;5006461;28;20531;-59
2022/05/20 11:41:05;;;;;;;6.18;1.40;;;16.20;99.90;;;;;;5005728;28;20251;-59
2022/05/20 11:43:51;;;;;;;7.90;2.60;;;16.50;99.90;;;;;;4965365;28;20042;-58
2022/05/20 11:46:31;;;;;;;2.15;1.50;;;16.70;99.90;;;;;;5004903;28;20493;-60
2022/05/20 11:49:13;;;;;;;8.07;2.05;;;17.00;99.90;;;;;;4998881;28;20038;-60
2022/05/20 11:52:02;;;;;;;5.93;2.50;;;17.20;99.90;;;;;;5005810;28;20050;-59
2022/05/20 11:54:39;;;;;;;5.15;1.88;;;17.50;99.90;;;;;;5027579;28;20041;-59
2022/05/20 11:57:11;;;;;;;6.65;3.28;;;17.70;99.90;;;;;;5010403;28;20612;-59
2022/05/20 11:59:51;;;;;;;15.43;1.83;;;17.60;99.90;;;;;;5008163;28;20042;-59
2022/05/20 12:02:19;;;;;;;7.50;1.35;;;17.40;99.90;;;;;;5008534;28;20045;-59
2022/05/20 12:04:49;;;;;;;6.57;2.00;;;17.30;99.90;;;;;;5009497;28;20386;-59
2022/05/20 12:07:21;;;;;;;3.95;1.15;;;17.10;99.90;;;;;;5009687;28;20057;-60
2022/05/20 12:09:54;;;;;;;5.35;1.55;;;16.90;99.90;;;;;;5030090;28;20046;-59
2022/05/20 12:12:28;;;;;;;6.90;2.03;;;16.60;99.90;;;;;;5016266;28;20053;-60
2022/05/20 12:15:08;;;;;;;8.07;1.40;;;16.40;99.90;;;;;;5030236;28;20049;-59
2022/05/20 12:17:52;;;;;;;3.88;1.40;;;16.20;99.90;;;;;;4993587;28;20058;-58
2022/05/20 12:26:19;;;;;;;3.35;1.50;;;16.10;99.90;;;;;;5009882;28;20072;-57
2022/05/20 12:28:47;;;;;;;;;;;16.20;99.90;;;;;;5022193;28;20048;-58
2022/05/20 12:31:22;;;;;;;3.70;1.27;;;16.40;99.90;;;;;;5002749;28;19921;-59
2022/05/20 12:33:56;;;;;;;10.27;1.65;;;16.50;99.90;;;;;;5002779;28;20067;-58
2022/05/20 12:36:28;;;;;;;8.65;1.30;;;16.50;99.90;;;;;;5003669;28;20069;-58
2022/05/20 12:39:12;;;;;;;5.18;1.38;;;16.70;99.90;;;;;;5005822;28;20050;-58
2022/05/20 12:41:49;;;;;;;6.32;1.63;;;16.80;99.90;;;;;;5003805;28;20414;-59
2022/05/20 12:44:17;;;;;;;15.90;1.98;;;17.00;99.90;;;;;;5009886;28;20493;-58
2022/05/20 12:46:57;;;;;;;12.30;1.52;;;17.10;99.90;;;;;;5005262;28;20101;-59
2022/05/20 12:49:35;;;;;;;3.20;1.27;;;17.20;99.90;;;;;;5002812;28;20517;-58
2022/05/20 12:52:26;;;;;;;3.63;1.00;;;17.00;99.90;;;;;;4997098;28;20050;-58
2022/05/20 12:54:57;;;;;;;8.35;1.00;;;16.90;99.90;;;;;;5000699;28;20611;-60
2022/05/20 12:57:29;;;;;;;6.07;0.90;;;16.80;99.90;;;;;;4998620;28;20430;-59
2022/05/20 13:00:08;;;;;;;9.85;1.48;;;16.70;99.90;;;;;;5000703;28;20489;-58
2022/05/20 13:02:41;;;;;;;3.67;0.95;;;16.70;99.90;;;;;;4990177;28;20053;-57
2022/05/20 13:05:21;;;;;;;6.32;0.88;;;16.70;99.90;;;;;;4999636;28;20050;-57
2022/05/20 13:07:51;;;;;;;4.32;0.90;;;16.80;99.90;;;;;;4991996;28;20490;-59
2022/05/20 13:10:20;;;;;;;;;;;16.90;99.90;;;;;;4992377;28;20051;-60
2022/05/20 13:12:50;;;;;;;5.10;1.25;;;17.20;99.90;;;;;;5003691;28;19932;-60
2022/05/20 13:15:19;;;;;;;8.02;1.10;;;17.50;99.90;;;;;;5001539;28;20508;-60
2022/05/20 13:18:02;;;;;;;3.58;0.90;;;18.00;99.90;;;;;;5007021;28;20642;-60
2022/05/20 13:20:32;;;;;;;2.55;0.85;;;18.50;99.90;;;;;;5002485;28;20891;-60
2022/05/20 13:23:02;;;;;;;;;;;19.20;99.90;;;;;;5000293;28;20053;-59
2022/05/20 13:25:30;;;;;;;;;;;19.40;99.90;;;;;;5029545;28;19937;-60
2022/05/20 13:27:59;;;;;;;4.20;1.10;;;19.30;98.50;;;;;;5003607;28;19926;-59
2022/05/20 13:30:30;;;;;;;4.60;0.88;;;19.10;98.30;;;;;;4991928;28;21128;-60
2022/05/20 13:33:05;;;;;;;3.28;0.80;;;18.90;99.20;;;;;;4996353;28;20053;-60
2022/05/20 13:36:06;;;;;;;3.22;1.05;;;18.80;99.30;;;;;;5008367;28;20045;-60
2022/05/20 13:38:41;;;;;;;15.55;1.42;;;18.70;99.30;;;;;;4975835;28;20046;-57
2022/05/20 13:41:10;;;;;;;2.90;0.82;;;18.60;99.90;;;;;;5005851;28;20073;-57
2022/05/20 13:43:40;;;;;;;4.18;0.85;;;18.50;99.90;;;;;;5019687;28;20060;-59
2022/05/20 13:49:14;;;;;;;7.13;1.15;;;18.40;99.40;;;;;;5005422;28;20046;-59
2022/05/20 13:51:54;;;;;;;4.35;0.95;;;18.30;99.60;;;;;;4993496;28;20073;-59
2022/05/20 13:54:33;;;;;;;;;;;18.00;99.90;;;;;;5010836;28;20043;-57
2022/05/20 13:57:03;;;;;;;8.90;1.00;;;17.80;99.90;;;;;;5010665;28;19922;-57
2022/05/20 13:59:30;;;;;;;8.73;1.90;;;17.70;99.90;;;;;;5029195;28;20295;-57
2022/05/20 14:02:14;;;;;;;3.30;1.00;;;17.50;99.90;;;;;;5029475;28;20057;-56
2022/05/20 14:04:53;;;;;;;5.22;1.33;;;17.40;99.90;;;;;;5003201;28;20046;-57